createdAt,value
2018-07-28T00:09:07.765Z,38.77
2018-07-28T00:19:10.853Z,37.87
2018-07-28T00:29:14.027Z,38.17
2018-07-28T00:39:17.201Z,38.28
2018-07-28T00:49:20.297Z,38.18
2018-07-28T00:59:23.455Z,38.16
2018-07-28T01:09:26.609Z,38.30
2018-07-28T01:19:29.735Z,38.97
2018-07-28T01:29:32.842Z,38.29
2018-07-28T01:39:35.977Z,39.01
2018-07-28T01:49:39.122Z,37.93
2018-07-28T01:59:42.314Z,38.93
2018-07-28T02:09:45.451Z,37.88
2018-07-28T02:19:49.022Z,38.18
2018-07-28T02:29:52.750Z,38.52
2018-07-28T02:39:55.901Z,38.64
2018-07-28T02:49:59.736Z,38.33
2018-07-28T03:00:02.771Z,38.20
2018-07-28T03:10:06.092Z,38.97
2018-07-28T03:20:09.221Z,39.12
2018-07-28T03:30:12.414Z,38.49
2018-07-28T03:40:15.694Z,38.56
2018-07-28T03:50:18.989Z,38.84
2018-07-28T04:00:22.049Z,37.96
2018-07-28T04:10:25.203Z,38.33
2018-07-28T04:20:28.638Z,38.53
2018-07-28T04:30:31.707Z,39.17
2018-07-28T04:40:34.774Z,38.24
2018-07-28T04:50:38.969Z,37.88
2018-07-28T05:00:42.051Z,38.38
2018-07-28T05:10:45.202Z,38.34
2018-07-28T05:20:48.341Z,38.05
2018-07-28T05:30:52.213Z,38.47
2018-07-28T05:40:55.498Z,38.08
2018-07-28T05:50:58.569Z,38.67
2018-07-28T06:01:01.723Z,38.67
2018-07-28T06:11:05.908Z,39.20
2018-07-28T06:21:09.045Z,37.85
2018-07-28T06:31:12.156Z,37.72
2018-07-28T06:41:15.325Z,38.35
2018-07-28T06:59:19.684Z,38.29
2018-07-28T07:09:22.254Z,37.46
2018-07-28T07:19:24.735Z,37.18
2018-07-28T07:29:27.220Z,37.18
2018-07-28T07:39:29.848Z,37.22
2018-07-28T07:49:32.276Z,36.80
2018-07-28T07:59:34.812Z,37.59
2018-07-28T08:09:37.330Z,38.18
2018-07-28T08:19:39.934Z,36.86
2018-07-28T08:29:42.374Z,37.70
2018-07-28T08:39:45.072Z,37.87
2018-07-28T08:49:47.399Z,38.28
2018-07-28T08:59:50.037Z,38.03
2018-07-28T09:09:52.856Z,38.29
2018-07-28T09:19:55.469Z,37.67
2018-07-28T09:29:57.957Z,37.66
2018-07-28T09:40:00.467Z,36.93
2018-07-28T09:50:03.034Z,36.35
2018-07-28T10:00:05.566Z,35.12
2018-07-28T10:10:08.053Z,34.65
2018-07-28T10:20:10.614Z,36.06
2018-07-28T10:30:13.127Z,36.49
2018-07-28T10:40:15.790Z,35.52
2018-07-28T10:50:18.142Z,36.76
2018-07-28T11:00:21.744Z,35.93
2018-07-28T11:10:24.249Z,36.22
2018-07-28T11:20:26.762Z,37.01
2018-07-28T11:30:29.419Z,36.69
2018-07-28T11:40:37.329Z,36.55
2018-07-28T11:50:39.869Z,36.04
2018-07-28T12:00:49.044Z,36.02
2018-07-28T12:10:52.061Z,36.63
2018-07-28T12:21:17.150Z,35.63
2018-07-28T12:31:42.753Z,36.30
2018-07-28T12:41:48.402Z,35.88
2018-07-28T12:51:50.882Z,36.10
2018-07-28T13:01:53.249Z,35.33
2018-07-28T13:11:55.870Z,34.90
2018-07-28T13:22:07.152Z,35.03
2018-07-28T13:32:14.074Z,35.08
2018-07-28T13:42:16.521Z,36.68
2018-07-28T13:52:24.117Z,37.32
2018-07-28T14:02:27.080Z,39.39
2018-07-28T14:12:29.590Z,36.97
2018-07-28T14:22:32.131Z,36.00
2018-07-28T14:32:34.664Z,36.44
2018-07-28T14:42:37.197Z,35.79
2018-07-28T14:52:39.704Z,34.65
2018-07-28T15:02:42.183Z,35.73
2018-07-28T15:12:44.574Z,34.93
2018-07-28T15:22:47.072Z,35.29
2018-07-28T15:32:49.621Z,33.24
2018-07-28T15:42:52.083Z,33.07
2018-07-28T15:52:54.640Z,33.99
2018-07-28T16:02:57.163Z,32.26
2018-07-28T16:12:59.649Z,32.82
2018-07-28T16:23:02.107Z,32.61
2018-07-28T16:33:04.559Z,33.94
2018-07-28T16:43:07.050Z,34.78
2018-07-28T16:53:09.604Z,35.17
2018-07-28T17:03:12.300Z,35.21
2018-07-28T17:13:14.901Z,34.05
2018-07-28T17:23:17.372Z,34.09
2018-07-28T17:33:19.949Z,32.70
2018-07-28T17:43:22.443Z,33.77
2018-07-28T17:53:24.992Z,33.52
2018-07-28T18:03:27.497Z,33.94
2018-07-28T18:13:30.023Z,34.28
2018-07-28T18:23:32.608Z,34.17
2018-07-28T18:33:35.034Z,33.36
2018-07-28T18:43:37.632Z,33.19
2018-07-28T18:53:40.317Z,33.65
2018-07-28T19:03:42.994Z,34.13
2018-07-28T19:13:50.853Z,34.64
2018-07-28T19:23:58.601Z,35.38
2018-07-28T19:34:01.057Z,34.68
2018-07-28T19:44:03.631Z,36.24
2018-07-28T19:54:06.221Z,36.26
2018-07-28T20:04:08.624Z,40.67
2018-07-28T20:14:11.244Z,39.70
2018-07-28T20:24:13.649Z,37.17
2018-07-28T20:34:15.988Z,36.30
2018-07-28T20:44:18.537Z,35.44
2018-07-28T20:54:21.041Z,35.54
2018-07-28T21:04:23.572Z,36.84
2018-07-28T21:14:26.070Z,36.07
2018-07-28T21:24:28.456Z,37.26
2018-07-28T21:34:31.318Z,36.47
2018-07-28T21:44:33.883Z,37.01
2018-07-28T21:54:37.058Z,37.21
2018-07-28T22:04:40.532Z,38.72
2018-07-28T22:14:42.923Z,38.02
2018-07-28T22:24:45.446Z,38.19
2018-07-28T22:34:47.926Z,38.83
2018-07-28T22:44:50.305Z,38.00
2018-07-28T22:54:52.783Z,38.93
2018-07-28T23:04:55.119Z,38.96
2018-07-28T23:14:57.611Z,39.04
2018-07-28T23:25:00.019Z,38.32
2018-07-28T23:35:02.535Z,39.81
2018-07-28T23:45:05.294Z,39.52
2018-07-28T23:55:07.722Z,40.13
